sensor_id;sensor_type;location;lat;lon;timestamp;pressure;altitude;pressure_sealevel;temperature;humidity
69713;BME280;56980;51.826;4.424;2022-09-01T00:01:13;102277.63;;;19.37;56.78
69713;BME280;56980;51.826;4.424;2022-09-01T00:03:44;102270.97;;;19.11;57.37
69713;BME280;56980;51.826;4.424;2022-09-01T00:06:14;102253.84;;;19.16;56.88
69713;BME280;56980;51.826;4.424;2022-09-01T00:08:40;102275.22;;;19.21;57.07
69713;BME280;56980;51.826;4.424;2022-09-01T00:11:05;102268.19;;;19.20;57.16
69713;BME280;56980;51.826;4.424;2022-09-01T00:13:30;102272.03;;;19.13;57.38
69713;BME280;56980;51.826;4.424;2022-09-01T00:15:59;102251.19;;;18.61;58.71
69713;BME280;56980;51.826;4.424;2022-09-01T00:18:25;102255.16;;;18.78;58.25
69713;BME280;56980;51.826;4.424;2022-09-01T00:20:50;102262.28;;;18.94;58.34
69713;BME280;56980;51.826;4.424;2022-09-01T00:23:16;102249.06;;;18.74;58.62
69713;BME280;56980;51.826;4.424;2022-09-01T00:25:41;102256.66;;;18.79;58.36
69713;BME280;56980;51.826;4.424;2022-09-01T00:28:07;102255.47;;;18.71;58.95
69713;BME280;56980;51.826;4.424;2022-09-01T00:30:32;102259.13;;;18.77;58.57
69713;BME280;56980;51.826;4.424;2022-09-01T00:32:57;102253.63;;;18.59;59.33
69713;BME280;56980;51.826;4.424;2022-09-01T00:35:23;102270.56;;;18.67;59.05
69713;BME280;56980;51.826;4.424;2022-09-01T00:37:48;102264.31;;;18.84;58.66
69713;BME280;56980;51.826;4.424;2022-09-01T00:40:16;102261.53;;;19.03;57.91
69713;BME280;56980;51.826;4.424;2022-09-01T00:42:42;102245.69;;;18.79;58.18
69713;BME280;56980;51.826;4.424;2022-09-01T00:45:09;102245.09;;;18.84;58.31
69713;BME280;56980;51.826;4.424;2022-09-01T00:47:35;102249.94;;;18.53;59.70
69713;BME280;56980;51.826;4.424;2022-09-01T00:50:03;102230.00;;;18.62;59.02
69713;BME280;56980;51.826;4.424;2022-09-01T00:52:34;102241.88;;;18.49;59.62
69713;BME280;56980;51.826;4.424;2022-09-01T00:55:11;102252.41;;;18.78;59.00
69713;BME280;56980;51.826;4.424;2022-09-01T00:57:37;102242.31;;;18.30;60.11
69713;BME280;56980;51.826;4.424;2022-09-01T01:00:16;102249.66;;;18.42;59.74
69713;BME280;56980;51.826;4.424;2022-09-01T01:02:42;102244.75;;;18.55;59.41
69713;BME280;56980;51.826;4.424;2022-09-01T01:05:10;102238.19;;;18.52;59.49
69713;BME280;56980;51.826;4.424;2022-09-01T01:07:36;102239.44;;;18.42;59.95
69713;BME280;56980;51.826;4.424;2022-09-01T01:10:11;102244.50;;;18.62;59.12
69713;BME280;56980;51.826;4.424;2022-09-01T01:12:38;102234.56;;;18.55;59.23
69713;BME280;56980;51.826;4.424;2022-09-01T01:15:06;102235.16;;;18.41;59.53
69713;BME280;56980;51.826;4.424;2022-09-01T01:17:32;102238.84;;;18.38;60.01
69713;BME280;56980;51.826;4.424;2022-09-01T01:19:58;102237.75;;;18.45;59.87
69713;BME280;56980;51.826;4.424;2022-09-01T01:30:46;102228.31;;;18.37;60.04
69713;BME280;56980;51.826;4.424;2022-09-01T01:33:15;102233.31;;;18.20;60.53
69713;BME280;56980;51.826;4.424;2022-09-01T01:35:41;102221.59;;;18.10;61.35
69713;BME280;56980;51.826;4.424;2022-09-01T01:38:08;102231.19;;;18.33;60.24
69713;BME280;56980;51.826;4.424;2022-09-01T01:40:35;102233.94;;;18.24;60.67
69713;BME280;56980;51.826;4.424;2022-09-01T01:43:01;102231.19;;;18.15;61.18
69713;BME280;56980;51.826;4.424;2022-09-01T01:45:27;102233.75;;;17.91;61.56
69713;BME280;56980;51.826;4.424;2022-09-01T01:47:53;102213.94;;;17.96;61.39
69713;BME280;56980;51.826;4.424;2022-09-01T01:50:28;102228.56;;;18.02;61.10
69713;BME280;56980;51.826;4.424;2022-09-01T01:52:58;102238.03;;;18.10;61.20
69713;BME280;56980;51.826;4.424;2022-09-01T01:55:24;102238.59;;;17.87;62.09
69713;BME280;56980;51.826;4.424;2022-09-01T01:57:52;102239.88;;;18.13;61.37
69713;BME280;56980;51.826;4.424;2022-09-01T02:00:20;102236.66;;;17.97;61.47
69713;BME280;56980;51.826;4.424;2022-09-01T02:02:48;102237.84;;;17.87;62.34
69713;BME280;56980;51.826;4.424;2022-09-01T02:05:37;102241.66;;;17.89;61.90
69713;BME280;56980;51.826;4.424;2022-09-01T02:08:05;102233.41;;;17.80;62.81
69713;BME280;56980;51.826;4.424;2022-09-01T02:10:37;102239.22;;;17.91;62.14
69713;BME280;56980;51.826;4.424;2022-09-01T02:13:04;102238.03;;;18.01;61.88
69713;BME280;56980;51.826;4.424;2022-09-01T02:15:35;102219.44;;;17.96;61.78
69713;BME280;56980;51.826;4.424;2022-09-01T02:18:06;102221.09;;;17.94;61.38
69713;BME280;56980;51.826;4.424;2022-09-01T02:20:31;102210.00;;;17.97;61.53
69713;BME280;56980;51.826;4.424;2022-09-01T02:22:57;102220.63;;;17.86;61.88
69713;BME280;56980;51.826;4.424;2022-09-01T02:25:22;102208.72;;;17.80;61.94
69713;BME280;56980;51.826;4.424;2022-09-01T02:27:48;102233.59;;;17.95;61.91
69713;BME280;56980;51.826;4.424;2022-09-01T02:30:17;102232.53;;;18.01;61.28
69713;BME280;56980;51.826;4.424;2022-09-01T02:32:43;102214.38;;;17.95;61.58
69713;BME280;56980;51.826;4.424;2022-09-01T02:35:08;102217.59;;;17.93;61.88
69713;BME280;56980;51.826;4.424;2022-09-01T02:37:35;102224.47;;;17.98;61.40
69713;BME280;56980;51.826;4.424;2022-09-01T02:40:01;102209.81;;;17.83;61.80
69713;BME280;56980;51.826;4.424;2022-09-01T02:42:26;102219.38;;;17.69;62.34
69713;BME280;56980;51.826;4.424;2022-09-01T02:44:54;102219.44;;;17.56;62.38
69713;BME280;56980;51.826;4.424;2022-09-01T02:47:20;102216.66;;;17.87;61.83
69713;BME280;56980;51.826;4.424;2022-09-01T02:49:48;102213.78;;;17.91;61.55
69713;BME280;56980;51.826;4.424;2022-09-01T02:52:14;102220.66;;;17.55;62.48
69713;BME280;56980;51.826;4.424;2022-09-01T02:54:42;102210.81;;;17.67;62.14
69713;BME280;56980;51.826;4.424;2022-09-01T02:57:11;102207.69;;;17.47;62.50
69713;BME280;56980;51.826;4.424;2022-09-01T02:59:36;102197.00;;;17.79;61.39
69713;BME280;56980;51.826;4.424;2022-09-01T03:02:02;102199.25;;;17.72;61.72
69713;BME280;56980;51.826;4.424;2022-09-01T03:04:28;102197.91;;;17.76;61.47
69713;BME280;56980;51.826;4.424;2022-09-01T03:06:57;102200.84;;;18.00;60.67
69713;BME280;56980;51.826;4.424;2022-09-01T03:09:23;102202.03;;;17.99;60.51
69713;BME280;56980;51.826;4.424;2022-09-01T03:11:50;102197.00;;;17.89;60.48
69713;BME280;56980;51.826;4.424;2022-09-01T03:14:17;102208.13;;;17.94;60.29
69713;BME280;56980;51.826;4.424;2022-09-01T03:16:42;102206.78;;;17.90;60.32
69713;BME280;56980;51.826;4.424;2022-09-01T03:19:08;102205.66;;;17.69;61.06
69713;BME280;56980;51.826;4.424;2022-09-01T03:21:38;102201.09;;;17.75;60.88
69713;BME280;56980;51.826;4.424;2022-09-01T03:24:09;102190.75;;;17.88;60.25
69713;BME280;56980;51.826;4.424;2022-09-01T03:26:35;102193.19;;;17.86;59.79
69713;BME280;56980;51.826;4.424;2022-09-01T03:29:02;102205.25;;;17.89;59.88
69713;BME280;56980;51.826;4.424;2022-09-01T03:31:28;102206.28;;;17.82;60.05
69713;BME280;56980;51.826;4.424;2022-09-01T03:33:54;102190.78;;;17.48;60.94
69713;BME280;56980;51.826;4.424;2022-09-01T03:36:24;102188.16;;;17.75;60.32
69713;BME280;56980;51.826;4.424;2022-09-01T03:38:50;102204.44;;;17.79;60.50
69713;BME280;56980;51.826;4.424;2022-09-01T03:41:20;102182.66;;;17.75;59.83
69713;BME280;56980;51.826;4.424;2022-09-01T03:43:47;102193.44;;;17.61;60.63
69713;BME280;56980;51.826;4.424;2022-09-01T03:46:13;102191.94;;;17.69;60.50
69713;BME280;56980;51.826;4.424;2022-09-01T03:48:47;102185.78;;;17.56;60.44
69713;BME280;56980;51.826;4.424;2022-09-01T03:51:14;102193.31;;;17.64;60.47
69713;BME280;56980;51.826;4.424;2022-09-01T03:53:39;102188.91;;;17.76;60.21
69713;BME280;56980;51.826;4.424;2022-09-01T03:56:05;102186.41;;;17.60;60.63
69713;BME280;56980;51.826;4.424;2022-09-01T03:58:31;102196.22;;;17.70;60.62
69713;BME280;56980;51.826;4.424;2022-09-01T04:00:58;102192.72;;;17.29;61.50
69713;BME280;56980;51.826;4.424;2022-09-01T04:03:31;102176.91;;;17.42;60.90
69713;BME280;56980;51.826;4.424;2022-09-01T04:06:00;102184.06;;;17.40;60.91
69713;BME280;56980;51.826;4.424;2022-09-01T04:08:26;102184.88;;;17.59;61.00
69713;BME280;56980;51.826;4.424;2022-09-01T04:10:57;102183.28;;;17.39;61.15
69713;BME280;56980;51.826;4.424;2022-09-01T04:13:41;102188.50;;;17.47;61.18
69713;BME280;56980;51.826;4.424;2022-09-01T04:16:36;102184.69;;;17.44;61.33
69713;BME280;56980;51.826;4.424;2022-09-01T04:19:22;102178.09;;;17.32;60.84
69713;BME280;56980;51.826;4.424;2022-09-01T04:21:53;102184.22;;;17.46;60.99
69713;BME280;56980;51.826;4.424;2022-09-01T04:24:21;102165.59;;;17.22;61.26
69713;BME280;56980;51.826;4.424;2022-09-01T04:26:49;102189.81;;;17.33;61.05
69713;BME280;56980;51.826;4.424;2022-09-01T04:29:20;102196.88;;;17.52;60.80
69713;BME280;56980;51.826;4.424;2022-09-01T04:31:55;102204.31;;;17.42;60.80
69713;BME280;56980;51.826;4.424;2022-09-01T04:34:22;102194.28;;;17.49;60.77
69713;BME280;56980;51.826;4.424;2022-09-01T04:36:49;102187.88;;;17.42;61.01
69713;BME280;56980;51.826;4.424;2022-09-01T04:39:19;102207.28;;;17.26;61.62
69713;BME280;56980;51.826;4.424;2022-09-01T04:41:45;102199.78;;;17.18;61.96
69713;BME280;56980;51.826;4.424;2022-09-01T04:44:12;102186.59;;;17.25;61.22
69713;BME280;56980;51.826;4.424;2022-09-01T04:46:41;102194.09;;;17.34;61.23
69713;BME280;56980;51.826;4.424;2022-09-01T04:49:08;102200.78;;;17.33;61.24
69713;BME280;56980;51.826;4.424;2022-09-01T04:51:42;102196.41;;;17.44;61.01
69713;BME280;56980;51.826;4.424;2022-09-01T04:54:09;102201.81;;;17.26;61.29
69713;BME280;56980;51.826;4.424;2022-09-01T04:56:40;102201.41;;;17.37;60.88
69713;BME280;56980;51.826;4.424;2022-09-01T04:59:06;102179.00;;;17.29;60.94
69713;BME280;56980;51.826;4.424;2022-09-01T05:01:35;102184.22;;;17.36;61.00
69713;BME280;56980;51.826;4.424;2022-09-01T05:04:13;102200.00;;;17.23;61.00
69713;BME280;56980;51.826;4.424;2022-09-01T05:06:44;102195.81;;;17.10;61.55
69713;BME280;56980;51.826;4.424;2022-09-01T05:09:12;102192.66;;;17.20;61.70
69713;BME280;56980;51.826;4.424;2022-09-01T05:11:39;102180.72;;;17.05;61.46
69713;BME280;56980;51.826;4.424;2022-09-01T05:14:13;102187.50;;;17.22;61.27
69713;BME280;56980;51.826;4.424;2022-09-01T05:16:38;102191.41;;;17.12;61.70
69713;BME280;56980;51.826;4.424;2022-09-01T05:19:08;102182.78;;;16.92;62.03
69713;BME280;56980;51.826;4.424;2022-09-01T05:21:40;102189.16;;;16.89;62.65
69713;BME280;56980;51.826;4.424;2022-09-01T05:24:13;102188.63;;;17.03;62.19
69713;BME280;56980;51.826;4.424;2022-09-01T05:26:40;102186.94;;;17.06;61.62
69713;BME280;56980;51.826;4.424;2022-09-01T05:29:07;102189.25;;;17.07;61.62
69713;BME280;56980;51.826;4.424;2022-09-01T05:31:38;102188.22;;;17.14;61.59
69713;BME280;56980;51.826;4.424;2022-09-01T05:34:04;102186.75;;;17.22;61.23
69713;BME280;56980;51.826;4.424;2022-09-01T05:36:32;102194.19;;;17.21;61.24
69713;BME280;56980;51.826;4.424;2022-09-01T05:38:58;102187.72;;;17.06;61.63
69713;BME280;56980;51.826;4.424;2022-09-01T05:41:24;102184.13;;;17.18;61.31
69713;BME280;56980;51.826;4.424;2022-09-01T05:43:53;102177.34;;;17.01;61.79
69713;BME280;56980;51.826;4.424;2022-09-01T05:46:22;102190.19;;;17.13;61.33
69713;BME280;56980;51.826;4.424;2022-09-01T05:48:50;102195.28;;;17.24;60.54
69713;BME280;56980;51.826;4.424;2022-09-01T05:51:22;102191.44;;;16.90;61.87
69713;BME280;56980;51.826;4.424;2022-09-01T05:53:51;102195.34;;;17.11;61.52
69713;BME280;56980;51.826;4.424;2022-09-01T05:56:18;102191.53;;;17.09;61.09
69713;BME280;56980;51.826;4.424;2022-09-01T05:58:44;102182.50;;;16.99;61.46
69713;BME280;56980;51.826;4.424;2022-09-01T06:01:19;102192.31;;;17.09;61.38
69713;BME280;56980;51.826;4.424;2022-09-01T06:03:56;102202.47;;;17.30;60.51
69713;BME280;56980;51.826;4.424;2022-09-01T06:06:27;102191.78;;;17.23;60.53
69713;BME280;56980;51.826;4.424;2022-09-01T06:08:53;102199.06;;;17.17;60.16
69713;BME280;56980;51.826;4.424;2022-09-01T06:11:22;102195.06;;;17.18;60.25
69713;BME280;56980;51.826;4.424;2022-09-01T06:13:49;102197.41;;;16.98;61.38
69713;BME280;56980;51.826;4.424;2022-09-01T06:16:16;102196.94;;;17.21;60.16
69713;BME280;56980;51.826;4.424;2022-09-01T06:18:44;102200.34;;;17.34;59.61
69713;BME280;56980;51.826;4.424;2022-09-01T06:21:10;102198.84;;;17.42;59.35
69713;BME280;56980;51.826;4.424;2022-09-01T06:23:43;102188.38;;;17.19;60.38
69713;BME280;56980;51.826;4.424;2022-09-01T06:26:16;102194.63;;;17.51;59.31
69713;BME280;56980;51.826;4.424;2022-09-01T06:28:43;102198.19;;;17.38;59.21
69713;BME280;56980;51.826;4.424;2022-09-01T06:31:08;102191.56;;;17.49;58.93
69713;BME280;56980;51.826;4.424;2022-09-01T06:33:34;102201.31;;;17.59;58.78
69713;BME280;56980;51.826;4.424;2022-09-01T06:36:00;102202.84;;;17.60;58.95
69713;BME280;56980;51.826;4.424;2022-09-01T06:38:28;102191.03;;;17.63;58.29
69713;BME280;56980;51.826;4.424;2022-09-01T06:41:01;102196.78;;;17.65;58.62
69713;BME280;56980;51.826;4.424;2022-09-01T06:43:28;102202.03;;;17.81;57.82
69713;BME280;56980;51.826;4.424;2022-09-01T06:45:55;102203.56;;;17.82;57.56
69713;BME280;56980;51.826;4.424;2022-09-01T06:48:21;102205.50;;;17.72;58.02
69713;BME280;56980;51.826;4.424;2022-09-01T06:50:47;102206.91;;;17.77;57.14
69713;BME280;56980;51.826;4.424;2022-09-01T06:53:13;102199.72;;;17.79;57.89
69713;BME280;56980;51.826;4.424;2022-09-01T06:55:42;102213.75;;;17.81;58.09
69713;BME280;56980;51.826;4.424;2022-09-01T06:58:09;102209.50;;;17.90;57.26
69713;BME280;56980;51.826;4.424;2022-09-01T07:00:37;102211.03;;;17.91;57.43
69713;BME280;56980;51.826;4.424;2022-09-01T07:03:07;102213.34;;;18.10;57.15
69713;BME280;56980;51.826;4.424;2022-09-01T07:05:43;102214.53;;;18.00;57.50
69713;BME280;56980;51.826;4.424;2022-09-01T07:08:12;102216.06;;;18.01;57.24
69713;BME280;56980;51.826;4.424;2022-09-01T07:10:42;102206.94;;;18.13;56.74
69713;BME280;56980;51.826;4.424;2022-09-01T07:13:11;102203.91;;;18.11;56.75
69713;BME280;56980;51.826;4.424;2022-09-01T07:15:40;102212.00;;;18.24;56.55
69713;BME280;56980;51.826;4.424;2022-09-01T07:18:06;102200.56;;;18.16;56.16
69713;BME280;56980;51.826;4.424;2022-09-01T07:20:32;102212.13;;;18.39;56.12
69713;BME280;56980;51.826;4.424;2022-09-01T07:23:02;102203.59;;;18.37;56.15
69713;BME280;56980;51.826;4.424;2022-09-01T07:25:28;102221.13;;;18.48;56.23
69713;BME280;56980;51.826;4.424;2022-09-01T07:27:56;102207.25;;;18.43;55.84
69713;BME280;56980;51.826;4.424;2022-09-01T07:30:24;102204.22;;;18.50;55.73
69713;BME280;56980;51.826;4.424;2022-09-01T07:32:49;102204.19;;;18.41;56.05
69713;BME280;56980;51.826;4.424;2022-09-01T07:35:18;102209.56;;;18.63;55.71
69713;BME280;56980;51.826;4.424;2022-09-01T07:37:44;102200.88;;;18.64;55.63
69713;BME280;56980;51.826;4.424;2022-09-01T07:40:13;102200.88;;;18.64;55.83
69713;BME280;56980;51.826;4.424;2022-09-01T07:42:47;102206.94;;;18.77;55.57
69713;BME280;56980;51.826;4.424;2022-09-01T07:45:15;102209.81;;;18.92;55.52
69713;BME280;56980;51.826;4.424;2022-09-01T07:47:42;102212.41;;;18.86;55.62
69713;BME280;56980;51.826;4.424;2022-09-01T07:50:10;102212.41;;;18.86;55.74
69713;BME280;56980;51.826;4.424;2022-09-01T07:52:38;102204.47;;;18.88;55.42
69713;BME280;56980;51.826;4.424;2022-09-01T07:55:14;102214.06;;;19.02;56.19
69713;BME280;56980;51.826;4.424;2022-09-01T07:57:42;102206.69;;;19.17;55.18
69713;BME280;56980;51.826;4.424;2022-09-01T08:00:11;102210.56;;;19.34;55.19
69713;BME280;56980;51.826;4.424;2022-09-01T08:02:37;102209.00;;;19.10;55.46
69713;BME280;56980;51.826;4.424;2022-09-01T08:05:08;102200.66;;;19.37;54.68
69713;BME280;56980;51.826;4.424;2022-09-01T08:07:35;102207.34;;;19.45;54.90
69713;BME280;56980;51.826;4.424;2022-09-01T08:10:02;102208.72;;;19.50;54.99
69713;BME280;56980;51.826;4.424;2022-09-01T08:12:28;102220.38;;;19.68;54.31
69713;BME280;56980;51.826;4.424;2022-09-01T08:14:54;102211.47;;;19.73;54.13
69713;BME280;56980;51.826;4.424;2022-09-01T08:17:19;102210.25;;;19.74;54.02
69713;BME280;56980;51.826;4.424;2022-09-01T08:19:45;102203.00;;;19.86;53.34
69713;BME280;56980;51.826;4.424;2022-09-01T08:22:12;102220.16;;;20.05;53.47
69713;BME280;56980;51.826;4.424;2022-09-01T08:24:37;102213.34;;;20.15;53.04
69713;BME280;56980;51.826;4.424;2022-09-01T08:27:02;102224.69;;;20.08;52.68
69713;BME280;56980;51.826;4.424;2022-09-01T08:29:28;102203.84;;;20.16;52.47
69713;BME280;56980;51.826;4.424;2022-09-01T08:31:54;102218.00;;;20.47;52.14
69713;BME280;56980;51.826;4.424;2022-09-01T08:34:19;102220.84;;;20.68;51.80
69713;BME280;56980;51.826;4.424;2022-09-01T08:36:45;102206.91;;;20.71;51.14
69713;BME280;56980;51.826;4.424;2022-09-01T08:39:10;102214.97;;;20.75;51.19
69713;BME280;56980;51.826;4.424;2022-09-01T08:44:32;102220.66;;;21.15;50.58
69713;BME280;56980;51.826;4.424;2022-09-01T08:47:10;102225.72;;;21.31;50.41
69713;BME280;56980;51.826;4.424;2022-09-01T08:49:37;102226.72;;;21.49;49.13
69713;BME280;56980;51.826;4.424;2022-09-01T08:54:56;102223.88;;;21.43;48.63
69713;BME280;56980;51.826;4.424;2022-09-01T08:57:33;102212.44;;;21.50;49.05
69713;BME280;56980;51.826;4.424;2022-09-01T08:59:59;102209.94;;;21.67;48.38
69713;BME280;56980;51.826;4.424;2022-09-01T09:05:07;102216.81;;;21.77;47.95
69713;BME280;56980;51.826;4.424;2022-09-01T09:07:57;102221.16;;;21.98;48.01
69713;BME280;56980;51.826;4.424;2022-09-01T09:10:31;102214.91;;;22.03;47.90
69713;BME280;56980;51.826;4.424;2022-09-01T09:16:05;102217.59;;;22.38;47.10
69713;BME280;56980;51.826;4.424;2022-09-01T09:18:43;102211.72;;;22.31;47.26
69713;BME280;56980;51.826;4.424;2022-09-01T09:21:16;102193.19;;;22.37;46.64
69713;BME280;56980;51.826;4.424;2022-09-01T09:23:54;102208.28;;;22.62;46.53
69713;BME280;56980;51.826;4.424;2022-09-01T09:26:22;102202.75;;;22.87;45.87
69713;BME280;56980;51.826;4.424;2022-09-01T09:28:48;102199.81;;;22.97;45.35
69713;BME280;56980;51.826;4.424;2022-09-01T09:31:35;102208.38;;;22.99;45.52
69713;BME280;56980;51.826;4.424;2022-09-01T09:34:03;102205.09;;;22.95;45.68
69713;BME280;56980;51.826;4.424;2022-09-01T09:36:39;102197.94;;;23.14;43.63
69713;BME280;56980;51.826;4.424;2022-09-01T09:39:13;102205.06;;;23.26;43.11
69713;BME280;56980;51.826;4.424;2022-09-01T09:41:42;102202.56;;;23.28;42.78
69713;BME280;56980;51.826;4.424;2022-09-01T09:44:27;102205.06;;;23.26;43.08
69713;BME280;56980;51.826;4.424;2022-09-01T09:46:54;102173.38;;;23.27;43.85
69713;BME280;56980;51.826;4.424;2022-09-01T09:49:29;102192.94;;;23.55;43.32
69713;BME280;56980;51.826;4.424;2022-09-01T09:54:28;102182.41;;;23.64;42.59
69713;BME280;56980;51.826;4.424;2022-09-01T09:57:12;102200.19;;;24.06;42.55
69713;BME280;56980;51.826;4.424;2022-09-01T10:04:49;102182.81;;;24.11;42.79
69713;BME280;56980;51.826;4.424;2022-09-01T10:07:33;102186.84;;;24.04;42.33
69713;BME280;56980;51.826;4.424;2022-09-01T10:10:05;102186.63;;;24.08;42.60
69713;BME280;56980;51.826;4.424;2022-09-01T10:12:32;102196.03;;;24.38;41.68
69713;BME280;56980;51.826;4.424;2022-09-01T10:15:05;102180.94;;;24.51;41.68
69713;BME280;56980;51.826;4.424;2022-09-01T10:17:38;102181.44;;;24.55;41.57
69713;BME280;56980;51.826;4.424;2022-09-01T10:20:10;102182.47;;;24.63;41.85
69713;BME280;56980;51.826;4.424;2022-09-01T10:22:37;102178.16;;;24.73;41.89
69713;BME280;56980;51.826;4.424;2022-09-01T10:25:05;102183.72;;;24.84;40.89
69713;BME280;56980;51.826;4.424;2022-09-01T10:27:34;102181.97;;;24.64;41.59
69713;BME280;56980;51.826;4.424;2022-09-01T10:30:14;102151.97;;;24.74;41.14
69713;BME280;56980;51.826;4.424;2022-09-01T10:32:46;102174.66;;;24.83;39.87
69713;BME280;56980;51.826;4.424;2022-09-01T10:35:40;102172.88;;;25.08;38.96
69713;BME280;56980;51.826;4.424;2022-09-01T10:38:09;102170.63;;;25.01;37.79
69713;BME280;56980;51.826;4.424;2022-09-01T10:40:43;102168.56;;;25.24;37.95
69713;BME280;56980;51.826;4.424;2022-09-01T10:45:48;102170.28;;;25.44;36.64
69713;BME280;56980;51.826;4.424;2022-09-01T10:50:46;102160.41;;;25.59;36.17
69713;BME280;56980;51.826;4.424;2022-09-01T10:56:23;102168.19;;;25.72;36.08
69713;BME280;56980;51.826;4.424;2022-09-01T11:04:14;102152.00;;;25.76;35.74
69713;BME280;56980;51.826;4.424;2022-09-01T11:09:06;102161.06;;;25.82;35.27
69713;BME280;56980;51.826;4.424;2022-09-01T11:11:47;102153.97;;;25.87;35.66
69713;BME280;56980;51.826;4.424;2022-09-01T11:14:17;102148.75;;;25.72;35.60
69713;BME280;56980;51.826;4.424;2022-09-01T11:19:54;102151.41;;;25.94;35.04
69713;BME280;56980;51.826;4.424;2022-09-01T11:38:48;102136.00;;;25.99;33.32
69713;BME280;56980;51.826;4.424;2022-09-01T11:41:28;102137.78;;;25.96;34.01
69713;BME280;56980;51.826;4.424;2022-09-01T11:43:57;102131.19;;;25.99;35.25
69713;BME280;56980;51.826;4.424;2022-09-01T11:46:29;102133.19;;;26.04;33.71
69713;BME280;56980;51.826;4.424;2022-09-01T11:48:59;102139.16;;;26.20;33.84
69713;BME280;56980;51.826;4.424;2022-09-01T11:51:35;102137.22;;;26.03;34.11
69713;BME280;56980;51.826;4.424;2022-09-01T11:54:03;102135.28;;;25.87;33.28
69713;BME280;56980;51.826;4.424;2022-09-01T11:56:29;102124.72;;;25.80;33.15
69713;BME280;56980;51.826;4.424;2022-09-01T11:58:54;102126.31;;;26.11;33.10
69713;BME280;56980;51.826;4.424;2022-09-01T12:01:32;102133.72;;;25.97;33.14
69713;BME280;56980;51.826;4.424;2022-09-01T12:04:17;102132.69;;;26.00;33.78
69713;BME280;56980;51.826;4.424;2022-09-01T12:06:57;102108.69;;;26.03;33.27
69713;BME280;56980;51.826;4.424;2022-09-01T12:09:32;102120.97;;;26.19;32.78
69713;BME280;56980;51.826;4.424;2022-09-01T12:11:58;102121.88;;;26.38;32.90
69713;BME280;56980;51.826;4.424;2022-09-01T12:14:23;102129.78;;;26.23;32.92
69713;BME280;56980;51.826;4.424;2022-09-01T12:17:00;102123.50;;;26.17;32.69
69713;BME280;56980;51.826;4.424;2022-09-01T12:19:30;102120.81;;;26.41;32.11
69713;BME280;56980;51.826;4.424;2022-09-01T12:22:00;102111.59;;;26.57;31.85
69713;BME280;56980;51.826;4.424;2022-09-01T12:24:26;102115.91;;;26.82;31.38
69713;BME280;56980;51.826;4.424;2022-09-01T12:26:53;102106.59;;;26.50;31.49
69713;BME280;56980;51.826;4.424;2022-09-01T12:29:21;102107.72;;;26.66;31.50
69713;BME280;56980;51.826;4.424;2022-09-01T12:31:49;102107.06;;;26.54;31.32
69713;BME280;56980;51.826;4.424;2022-09-01T12:37:08;102113.06;;;26.94;31.22
69713;BME280;56980;51.826;4.424;2022-09-01T12:39:43;102110.28;;;26.94;30.61
69713;BME280;56980;51.826;4.424;2022-09-01T12:42:21;102114.88;;;26.86;30.86
69713;BME280;56980;51.826;4.424;2022-09-01T12:45:04;102109.22;;;26.97;30.65
69713;BME280;56980;51.826;4.424;2022-09-01T12:52:27;102112.69;;;27.03;30.19
69713;BME280;56980;51.826;4.424;2022-09-01T12:57:29;102104.88;;;26.71;31.14
69713;BME280;56980;51.826;4.424;2022-09-01T13:00:28;102105.75;;;26.91;29.45
69713;BME280;56980;51.826;4.424;2022-09-01T13:05:37;102097.00;;;27.05;29.25
69713;BME280;56980;51.826;4.424;2022-09-01T13:08:16;102096.94;;;27.30;29.46
69713;BME280;56980;51.826;4.424;2022-09-01T13:10:44;102101.81;;;27.24;29.30
69713;BME280;56980;51.826;4.424;2022-09-01T13:13:11;102104.16;;;27.19;28.48
69713;BME280;56980;51.826;4.424;2022-09-01T13:15:41;102091.38;;;27.30;29.16
69713;BME280;56980;51.826;4.424;2022-09-01T13:18:08;102076.72;;;27.29;28.63
69713;BME280;56980;51.826;4.424;2022-09-01T13:20:34;102095.16;;;27.32;28.33
69713;BME280;56980;51.826;4.424;2022-09-01T13:23:00;102085.97;;;27.18;28.50
69713;BME280;56980;51.826;4.424;2022-09-01T13:25:26;102081.56;;;27.04;28.76
69713;BME280;56980;51.826;4.424;2022-09-01T13:27:51;102084.69;;;27.19;28.64
69713;BME280;56980;51.826;4.424;2022-09-01T13:30:23;102078.22;;;27.30;28.34
69713;BME280;56980;51.826;4.424;2022-09-01T13:32:52;102081.38;;;26.97;29.22
69713;BME280;56980;51.826;4.424;2022-09-01T13:35:20;102077.38;;;27.35;28.63
69713;BME280;56980;51.826;4.424;2022-09-01T13:37:46;102070.41;;;27.47;28.25
69713;BME280;56980;51.826;4.424;2022-09-01T13:40:13;102072.25;;;27.64;28.16
69713;BME280;56980;51.826;4.424;2022-09-01T13:42:42;102067.34;;;27.70;26.63
69713;BME280;56980;51.826;4.424;2022-09-01T13:45:08;102061.38;;;27.79;26.69
69713;BME280;56980;51.826;4.424;2022-09-01T13:47:37;102061.31;;;27.84;27.25
69713;BME280;56980;51.826;4.424;2022-09-01T13:50:03;102062.81;;;27.85;26.59
69713;BME280;56980;51.826;4.424;2022-09-01T13:52:29;102062.19;;;27.92;26.16
69713;BME280;56980;51.826;4.424;2022-09-01T13:54:54;102045.66;;;27.81;26.65
69713;BME280;56980;51.826;4.424;2022-09-01T13:57:20;102066.84;;;28.03;25.47
69713;BME280;56980;51.826;4.424;2022-09-01T13:59:45;102048.78;;;27.91;25.76
69713;BME280;56980;51.826;4.424;2022-09-01T14:02:11;102048.31;;;28.06;25.20
69713;BME280;56980;51.826;4.424;2022-09-01T14:04:36;102055.25;;;27.99;25.58
69713;BME280;56980;51.826;4.424;2022-09-01T14:07:02;102055.03;;;27.97;25.68
69713;BME280;56980;51.826;4.424;2022-09-01T14:09:28;102045.19;;;28.09;25.53
69713;BME280;56980;51.826;4.424;2022-09-01T14:11:54;102046.06;;;28.04;25.72
69713;BME280;56980;51.826;4.424;2022-09-01T14:14:20;102050.78;;;28.09;26.09
69713;BME280;56980;51.826;4.424;2022-09-01T14:16:46;102034.47;;;28.00;24.81